sensor_id;sensor_type;location;lat;lon;timestamp;pressure;altitude;pressure_sealevel;temperature;humidity
57048;BME280;42934;54.294;18.598;2023-03-03T00:01:35;101170.25;;;-0.12;82.78
57048;BME280;42934;54.294;18.598;2023-03-03T00:04:04;101165.09;;;-0.12;83.31
57048;BME280;42934;54.294;18.598;2023-03-03T00:06:34;101158.16;;;-0.15;83.30
57048;BME280;42934;54.294;18.598;2023-03-03T00:09:03;101157.19;;;-0.21;83.66
57048;BME280;42934;54.294;18.598;2023-03-03T00:11:33;101155.53;;;-0.18;83.02
57048;BME280;42934;54.294;18.598;2023-03-03T00:14:02;101139.88;;;-0.27;83.34
57048;BME280;42934;54.294;18.598;2023-03-03T00:16:36;101145.09;;;-0.24;83.20
57048;BME280;42934;54.294;18.598;2023-03-03T00:19:12;101135.56;;;-0.28;83.94
57048;BME280;42934;54.294;18.598;2023-03-03T00:21:45;101126.97;;;-0.27;84.02
57048;BME280;42934;54.294;18.598;2023-03-03T00:24:17;101128.56;;;-0.34;84.37
57048;BME280;42934;54.294;18.598;2023-03-03T00:26:49;101122.59;;;-0.31;84.30
57048;BME280;42934;54.294;18.598;2023-03-03T00:29:31;101125.25;;;-0.27;84.18
57048;BME280;42934;54.294;18.598;2023-03-03T00:32:22;101129.66;;;-0.22;83.38
57048;BME280;42934;54.294;18.598;2023-03-03T00:34:54;101118.41;;;-0.26;83.83
57048;BME280;42934;54.294;18.598;2023-03-03T00:37:32;101112.28;;;-0.31;84.27
57048;BME280;42934;54.294;18.598;2023-03-03T00:40:16;101091.69;;;-0.28;84.40
57048;BME280;42934;54.294;18.598;2023-03-03T00:42:50;101092.56;;;-0.29;84.12
57048;BME280;42934;54.294;18.598;2023-03-03T00:45:27;101096.91;;;-0.25;84.49
57048;BME280;42934;54.294;18.598;2023-03-03T00:47:59;101102.13;;;-0.24;84.26
57048;BME280;42934;54.294;18.598;2023-03-03T00:50:38;101101.28;;;-0.21;83.79
57048;BME280;42934;54.294;18.598;2023-03-03T00:53:11;101100.50;;;-0.17;83.97
57048;BME280;42934;54.294;18.598;2023-03-03T00:55:44;101103.06;;;-0.18;84.06
57048;BME280;42934;54.294;18.598;2023-03-03T00:58:14;101110.72;;;-0.23;83.97
57048;BME280;42934;54.294;18.598;2023-03-03T01:00:47;101102.06;;;-0.25;84.21
57048;BME280;42934;54.294;18.598;2023-03-03T01:03:22;101106.25;;;-0.32;84.13
57048;BME280;42934;54.294;18.598;2023-03-03T01:05:52;101098.63;;;-0.26;83.49
57048;BME280;42934;54.294;18.598;2023-03-03T01:08:22;101114.06;;;-0.27;83.76
57048;BME280;42934;54.294;18.598;2023-03-03T01:10:53;101101.09;;;-0.32;84.40
57048;BME280;42934;54.294;18.598;2023-03-03T01:13:26;101092.63;;;-0.25;83.74
57048;BME280;42934;54.294;18.598;2023-03-03T01:15:56;101083.16;;;-0.24;83.56
57048;BME280;42934;54.294;18.598;2023-03-03T01:18:28;101079.59;;;-0.31;83.91
57048;BME280;42934;54.294;18.598;2023-03-03T01:20:57;101079.59;;;-0.31;83.84
57048;BME280;42934;54.294;18.598;2023-03-03T01:23:27;101072.72;;;-0.30;83.96
57048;BME280;42934;54.294;18.598;2023-03-03T01:25:56;101079.66;;;-0.28;84.03
57048;BME280;42934;54.294;18.598;2023-03-03T01:28:26;101073.63;;;-0.28;83.70
57048;BME280;42934;54.294;18.598;2023-03-03T01:31:00;101077.06;;;-0.29;83.97
57048;BME280;42934;54.294;18.598;2023-03-03T01:33:32;101068.38;;;-0.34;84.17
57048;BME280;42934;54.294;18.598;2023-03-03T01:36:02;101065.69;;;-0.39;84.15
57048;BME280;42934;54.294;18.598;2023-03-03T01:38:34;101068.31;;;-0.36;83.75
57048;BME280;42934;54.294;18.598;2023-03-03T01:41:04;101086.38;;;-0.37;84.35
57048;BME280;42934;54.294;18.598;2023-03-03T01:43:34;101076.09;;;-0.34;83.81
57048;BME280;42934;54.294;18.598;2023-03-03T01:46:31;101065.56;;;-0.47;84.52
57048;BME280;42934;54.294;18.598;2023-03-03T01:49:06;101056.09;;;-0.46;84.36
57048;BME280;42934;54.294;18.598;2023-03-03T01:51:45;101061.34;;;-0.41;84.73
57048;BME280;42934;54.294;18.598;2023-03-03T01:54:19;101067.22;;;-0.49;84.98
57048;BME280;42934;54.294;18.598;2023-03-03T01:56:50;101063.97;;;-0.38;83.95
57048;BME280;42934;54.294;18.598;2023-03-03T01:59:24;101059.66;;;-0.39;83.88
57048;BME280;42934;54.294;18.598;2023-03-03T02:01:55;101044.97;;;-0.43;84.50
57048;BME280;42934;54.294;18.598;2023-03-03T02:04:26;101053.47;;;-0.48;84.39
57048;BME280;42934;54.294;18.598;2023-03-03T02:06:58;101047.63;;;-0.40;84.47
57048;BME280;42934;54.294;18.598;2023-03-03T02:09:37;101045.84;;;-0.41;84.71
57048;BME280;42934;54.294;18.598;2023-03-03T02:12:12;101045.91;;;-0.40;84.88
57048;BME280;42934;54.294;18.598;2023-03-03T02:14:42;101045.94;;;-0.37;84.52
57048;BME280;42934;54.294;18.598;2023-03-03T02:17:11;101045.16;;;-0.34;84.90
57048;BME280;42934;54.294;18.598;2023-03-03T02:19:49;101046.06;;;-0.32;84.64
57048;BME280;42934;54.294;18.598;2023-03-03T02:22:25;101034.03;;;-0.30;84.65
57048;BME280;42934;54.294;18.598;2023-03-03T02:25:02;101039.19;;;-0.30;84.57
57048;BME280;42934;54.294;18.598;2023-03-03T02:27:36;101038.31;;;-0.32;85.22
57048;BME280;42934;54.294;18.598;2023-03-03T02:30:15;101024.50;;;-0.33;85.33
57048;BME280;42934;54.294;18.598;2023-03-03T02:32:45;101029.78;;;-0.27;85.45
57048;BME280;42934;54.294;18.598;2023-03-03T02:35:27;101039.34;;;-0.21;84.96
57048;BME280;42934;54.294;18.598;2023-03-03T02:38:06;101030.69;;;-0.25;85.65
57048;BME280;42934;54.294;18.598;2023-03-03T02:40:43;101034.97;;;-0.25;86.12
57048;BME280;42934;54.294;18.598;2023-03-03T02:43:18;101037.72;;;-0.17;85.44
57048;BME280;42934;54.294;18.598;2023-03-03T02:45:50;101036.94;;;-0.12;85.43
57048;BME280;42934;54.294;18.598;2023-03-03T02:48:20;101036.91;;;-0.13;86.09
57048;BME280;42934;54.294;18.598;2023-03-03T02:50:49;101032.69;;;-0.08;85.16
57048;BME280;42934;54.294;18.598;2023-03-03T02:53:18;101042.16;;;-0.09;85.42
57048;BME280;42934;54.294;18.598;2023-03-03T02:55:48;101040.53;;;-0.02;85.21
57048;BME280;42934;54.294;18.598;2023-03-03T02:58:18;101043.03;;;-0.08;85.59
57048;BME280;42934;54.294;18.598;2023-03-03T03:00:48;101042.16;;;-0.07;85.81
57048;BME280;42934;54.294;18.598;2023-03-03T03:03:21;101033.56;;;-0.06;85.68
57048;BME280;42934;54.294;18.598;2023-03-03T03:05:51;101021.56;;;-0.06;85.51
57048;BME280;42934;54.294;18.598;2023-03-03T03:08:21;101030.16;;;-0.05;85.82
57048;BME280;42934;54.294;18.598;2023-03-03T03:10:51;101026.72;;;-0.06;85.92
57048;BME280;42934;54.294;18.598;2023-03-03T03:13:22;101033.72;;;0.02;86.03
57048;BME280;42934;54.294;18.598;2023-03-03T03:15:52;101038.91;;;0.03;85.95
57048;BME280;42934;54.294;18.598;2023-03-03T03:18:21;101033.75;;;0.03;85.95
57048;BME280;42934;54.294;18.598;2023-03-03T03:20:50;101030.28;;;0.03;86.45
57048;BME280;42934;54.294;18.598;2023-03-03T03:23:20;101028.59;;;0.05;86.37
57048;BME280;42934;54.294;18.598;2023-03-03T03:25:50;101027.69;;;0.03;86.73
57048;BME280;42934;54.294;18.598;2023-03-03T03:28:26;101028.69;;;0.11;87.03
57048;BME280;42934;54.294;18.598;2023-03-03T03:30:55;101036.50;;;0.14;86.61
57048;BME280;42934;54.294;18.598;2023-03-03T03:33:25;101044.22;;;0.12;87.22
57048;BME280;42934;54.294;18.598;2023-03-03T03:35:57;101039.94;;;0.13;87.23
57048;BME280;42934;54.294;18.598;2023-03-03T03:38:27;101050.34;;;0.19;86.72
57048;BME280;42934;54.294;18.598;2023-03-03T03:40:59;101040.06;;;0.22;86.81
57048;BME280;42934;54.294;18.598;2023-03-03T03:43:29;101047.88;;;0.25;87.48
57048;BME280;42934;54.294;18.598;2023-03-03T03:46:00;101041.88;;;0.29;87.07
57048;BME280;42934;54.294;18.598;2023-03-03T03:48:30;101038.38;;;0.24;87.83
57048;BME280;42934;54.294;18.598;2023-03-03T03:51:01;101048.00;;;0.33;87.90
57048;BME280;42934;54.294;18.598;2023-03-03T03:53:31;101042.88;;;0.36;87.22
57048;BME280;42934;54.294;18.598;2023-03-03T03:56:01;101035.91;;;0.30;88.16
57048;BME280;42934;54.294;18.598;2023-03-03T03:58:32;101046.22;;;0.32;88.11
57048;BME280;42934;54.294;18.598;2023-03-03T04:01:07;101047.22;;;0.38;88.20
57048;BME280;42934;54.294;18.598;2023-03-03T04:03:42;101043.84;;;0.44;87.66
57048;BME280;42934;54.294;18.598;2023-03-03T04:06:15;101050.72;;;0.43;88.49
57048;BME280;42934;54.294;18.598;2023-03-03T04:08:45;101049.91;;;0.46;88.25
57048;BME280;42934;54.294;18.598;2023-03-03T04:11:15;101042.22;;;0.51;88.09
57048;BME280;42934;54.294;18.598;2023-03-03T04:13:46;101044.81;;;0.52;87.89
57048;BME280;42934;54.294;18.598;2023-03-03T04:16:16;101030.19;;;0.51;88.47
57048;BME280;42934;54.294;18.598;2023-03-03T04:18:46;101031.09;;;0.53;88.50
57048;BME280;42934;54.294;18.598;2023-03-03T04:21:17;101052.66;;;0.57;88.13
57048;BME280;42934;54.294;18.598;2023-03-03T04:23:46;101038.03;;;0.59;88.63
57048;BME280;42934;54.294;18.598;2023-03-03T04:26:17;101032.03;;;0.60;88.54
57048;BME280;42934;54.294;18.598;2023-03-03T04:28:49;101033.84;;;0.67;88.24
57048;BME280;42934;54.294;18.598;2023-03-03T04:31:19;101041.59;;;0.67;88.10
57048;BME280;42934;54.294;18.598;2023-03-03T04:33:49;101039.97;;;0.74;88.13
57048;BME280;42934;54.294;18.598;2023-03-03T04:36:18;101034.00;;;0.79;88.30
57048;BME280;42934;54.294;18.598;2023-03-03T04:38:48;101016.81;;;0.80;88.12
57048;BME280;42934;54.294;18.598;2023-03-03T04:41:18;101009.03;;;0.80;88.14
57048;BME280;42934;54.294;18.598;2023-03-03T04:43:49;101003.03;;;0.82;88.08
57048;BME280;42934;54.294;18.598;2023-03-03T04:46:18;100996.16;;;0.83;88.79
57048;BME280;42934;54.294;18.598;2023-03-03T04:48:47;100979.81;;;0.85;88.34
57048;BME280;42934;54.294;18.598;2023-03-03T04:51:17;100965.06;;;0.78;89.29
57048;BME280;42934;54.294;18.598;2023-03-03T04:53:47;100973.75;;;0.83;88.97
57048;BME280;42934;54.294;18.598;2023-03-03T04:56:16;100973.78;;;0.86;88.76
57048;BME280;42934;54.294;18.598;2023-03-03T04:58:45;100977.25;;;0.87;88.96
57048;BME280;42934;54.294;18.598;2023-03-03T05:01:16;100982.47;;;0.93;89.50
57048;BME280;42934;54.294;18.598;2023-03-03T05:03:46;100974.78;;;0.98;89.03
57048;BME280;42934;54.294;18.598;2023-03-03T05:06:18;100967.03;;;0.99;89.49
57048;BME280;42934;54.294;18.598;2023-03-03T05:08:47;100953.28;;;1.00;88.80
57048;BME280;42934;54.294;18.598;2023-03-03T05:11:17;100962.72;;;1.00;89.70
57048;BME280;42934;54.294;18.598;2023-03-03T05:13:46;100965.31;;;0.98;89.28
57048;BME280;42934;54.294;18.598;2023-03-03T05:16:16;100975.75;;;1.07;88.86
57048;BME280;42934;54.294;18.598;2023-03-03T05:18:46;100987.88;;;1.13;89.27
57048;BME280;42934;54.294;18.598;2023-03-03T05:21:15;100976.72;;;1.17;88.85
57048;BME280;42934;54.294;18.598;2023-03-03T05:23:44;100981.06;;;1.20;88.53
57048;BME280;42934;54.294;18.598;2023-03-03T05:26:14;100971.53;;;1.17;89.09
57048;BME280;42934;54.294;18.598;2023-03-03T05:28:43;100982.78;;;1.19;89.19
57048;BME280;42934;54.294;18.598;2023-03-03T05:31:13;100983.72;;;1.24;88.37
57048;BME280;42934;54.294;18.598;2023-03-03T05:33:43;100985.50;;;1.30;88.29
57048;BME280;42934;54.294;18.598;2023-03-03T05:36:13;100982.94;;;1.33;88.49
57048;BME280;42934;54.294;18.598;2023-03-03T05:38:42;100978.63;;;1.35;88.58
57048;BME280;42934;54.294;18.598;2023-03-03T05:41:11;100980.34;;;1.34;88.71
57048;BME280;42934;54.294;18.598;2023-03-03T05:43:40;100990.72;;;1.36;87.78
57048;BME280;42934;54.294;18.598;2023-03-03T05:46:10;100993.31;;;1.36;88.59
57048;BME280;42934;54.294;18.598;2023-03-03T05:48:39;100996.75;;;1.35;88.05
57048;BME280;42934;54.294;18.598;2023-03-03T05:51:10;100990.78;;;1.44;88.51
57048;BME280;42934;54.294;18.598;2023-03-03T05:53:40;100992.56;;;1.48;87.91
57048;BME280;42934;54.294;18.598;2023-03-03T05:56:09;100990.03;;;1.51;87.32
57048;BME280;42934;54.294;18.598;2023-03-03T05:58:39;100992.63;;;1.55;88.09
57048;BME280;42934;54.294;18.598;2023-03-03T06:01:08;101003.91;;;1.59;87.84
57048;BME280;42934;54.294;18.598;2023-03-03T06:03:38;100990.97;;;1.61;87.87
57048;BME280;42934;54.294;18.598;2023-03-03T06:06:07;100995.31;;;1.63;87.24
57048;BME280;42934;54.294;18.598;2023-03-03T06:08:38;100990.09;;;1.60;87.41
57048;BME280;42934;54.294;18.598;2023-03-03T06:11:07;101009.13;;;1.62;87.95
57048;BME280;42934;54.294;18.598;2023-03-03T06:13:37;101006.53;;;1.62;87.30
57048;BME280;42934;54.294;18.598;2023-03-03T06:16:08;100990.13;;;1.65;87.80
57048;BME280;42934;54.294;18.598;2023-03-03T06:18:37;100999.69;;;1.69;87.66
57048;BME280;42934;54.294;18.598;2023-03-03T06:21:07;100999.69;;;1.69;87.49
57048;BME280;42934;54.294;18.598;2023-03-03T06:23:37;101002.28;;;1.72;87.46
57048;BME280;42934;54.294;18.598;2023-03-03T06:26:32;100993.75;;;1.80;87.25
57048;BME280;42934;54.294;18.598;2023-03-03T06:29:01;101002.38;;;1.81;87.11
57048;BME280;42934;54.294;18.598;2023-03-03T06:31:31;100998.97;;;1.87;86.47
57048;BME280;42934;54.294;18.598;2023-03-03T06:34:00;100999.84;;;1.90;86.89
57048;BME280;42934;54.294;18.598;2023-03-03T06:36:30;100995.59;;;1.95;86.74
57048;BME280;42934;54.294;18.598;2023-03-03T06:39:00;101005.09;;;1.99;86.55
57048;BME280;42934;54.294;18.598;2023-03-03T06:41:30;101009.47;;;2.03;86.31
57048;BME280;42934;54.294;18.598;2023-03-03T06:44:00;101001.69;;;2.05;85.79
57048;BME280;42934;54.294;18.598;2023-03-03T06:46:29;101006.09;;;2.12;86.29
57048;BME280;42934;54.294;18.598;2023-03-03T06:48:58;101002.66;;;2.16;85.63
57048;BME280;42934;54.294;18.598;2023-03-03T06:51:32;100998.38;;;2.21;85.58
57048;BME280;42934;54.294;18.598;2023-03-03T06:54:10;100996.63;;;2.20;85.63
57048;BME280;42934;54.294;18.598;2023-03-03T06:56:41;101007.88;;;2.22;85.29
57048;BME280;42934;54.294;18.598;2023-03-03T06:59:12;101000.13;;;2.25;85.54
57048;BME280;42934;54.294;18.598;2023-03-03T07:01:43;100996.72;;;2.31;85.52
57048;BME280;42934;54.294;18.598;2023-03-03T07:04:14;101011.41;;;2.34;84.81
57048;BME280;42934;54.294;18.598;2023-03-03T07:06:45;101010.59;;;2.42;84.73
57048;BME280;42934;54.294;18.598;2023-03-03T07:09:20;101006.31;;;2.49;85.08
57048;BME280;42934;54.294;18.598;2023-03-03T07:11:51;101024.50;;;2.54;84.82
57048;BME280;42934;54.294;18.598;2023-03-03T07:14:21;101018.50;;;2.59;84.16
57048;BME280;42934;54.294;18.598;2023-03-03T07:16:55;101022.84;;;2.66;84.49
57048;BME280;42934;54.294;18.598;2023-03-03T07:19:30;101026.34;;;2.73;83.82
57048;BME280;42934;54.294;18.598;2023-03-03T07:22:11;101028.09;;;2.74;83.55
57048;BME280;42934;54.294;18.598;2023-03-03T07:24:45;101018.56;;;2.76;83.78
57048;BME280;42934;54.294;18.598;2023-03-03T07:27:18;101028.97;;;2.78;83.34
57048;BME280;42934;54.294;18.598;2023-03-03T07:29:52;101033.25;;;2.76;82.92
57048;BME280;42934;54.294;18.598;2023-03-03T07:32:27;101025.50;;;2.74;83.25
57048;BME280;42934;54.294;18.598;2023-03-03T07:35:03;101030.69;;;2.79;82.85
57048;BME280;42934;54.294;18.598;2023-03-03T07:37:41;101020.34;;;2.80;82.91
57048;BME280;42934;54.294;18.598;2023-03-03T07:40:32;101022.03;;;2.75;82.77
57048;BME280;42934;54.294;18.598;2023-03-03T07:43:26;101024.66;;;2.81;83.11
57048;BME280;42934;54.294;18.598;2023-03-03T07:46:02;101029.00;;;2.87;82.40
57048;BME280;42934;54.294;18.598;2023-03-03T07:48:42;101026.44;;;2.96;82.44
57048;BME280;42934;54.294;18.598;2023-03-03T07:51:15;101019.53;;;2.96;82.48
57048;BME280;42934;54.294;18.598;2023-03-03T07:53:49;101023.91;;;3.05;82.18
57048;BME280;42934;54.294;18.598;2023-03-03T07:56:28;101020.47;;;3.12;81.95
57048;BME280;42934;54.294;18.598;2023-03-03T07:58:58;101026.53;;;3.16;81.70
57048;BME280;42934;54.294;18.598;2023-03-03T08:01:36;101030.00;;;3.16;81.24
57048;BME280;42934;54.294;18.598;2023-03-03T08:04:16;101023.97;;;3.22;81.49
57048;BME280;42934;54.294;18.598;2023-03-03T08:06:49;101020.50;;;3.23;81.00
57048;BME280;42934;54.294;18.598;2023-03-03T08:09:37;101020.50;;;3.18;80.62
57048;BME280;42934;54.294;18.598;2023-03-03T08:12:37;101020.50;;;3.29;80.76
57048;BME280;42934;54.294;18.598;2023-03-03T08:15:19;101016.22;;;3.33;80.78
57048;BME280;42934;54.294;18.598;2023-03-03T08:17:50;101009.28;;;3.35;80.51
57048;BME280;42934;54.294;18.598;2023-03-03T08:20:54;101003.25;;;3.44;80.45
57048;BME280;42934;54.294;18.598;2023-03-03T08:23:24;101008.47;;;3.56;80.52
57048;BME280;42934;54.294;18.598;2023-03-03T08:25:53;101001.56;;;3.56;79.78
57048;BME280;42934;54.294;18.598;2023-03-03T08:28:24;101004.16;;;3.59;79.85
57048;BME280;42934;54.294;18.598;2023-03-03T08:30:54;101009.38;;;3.66;79.56
57048;BME280;42934;54.294;18.598;2023-03-03T08:33:43;101004.19;;;3.69;79.73
57048;BME280;42934;54.294;18.598;2023-03-03T08:36:13;101008.50;;;3.73;79.28
57048;BME280;42934;54.294;18.598;2023-03-03T08:38:43;100999.88;;;3.80;79.13
57048;BME280;42934;54.294;18.598;2023-03-03T08:41:12;101008.50;;;3.88;79.16
57048;BME280;42934;54.294;18.598;2023-03-03T08:43:43;101000.72;;;3.96;79.15
57048;BME280;42934;54.294;18.598;2023-03-03T08:46:12;101002.44;;;4.00;79.02
57048;BME280;42934;54.294;18.598;2023-03-03T08:48:42;101005.06;;;3.98;78.97
57048;BME280;42934;54.294;18.598;2023-03-03T08:51:11;101010.25;;;4.07;78.35
57048;BME280;42934;54.294;18.598;2023-03-03T08:53:41;100998.13;;;4.19;78.21
57048;BME280;42934;54.294;18.598;2023-03-03T08:56:10;101011.97;;;4.28;77.99
57048;BME280;42934;54.294;18.598;2023-03-03T08:58:39;101018.91;;;4.19;77.12
57048;BME280;42934;54.294;18.598;2023-03-03T09:01:30;101017.16;;;4.19;77.56
57048;BME280;42934;54.294;18.598;2023-03-03T09:04:00;101014.59;;;4.13;77.15
57048;BME280;42934;54.294;18.598;2023-03-03T09:06:29;101018.06;;;4.12;76.72
57048;BME280;42934;54.294;18.598;2023-03-03T09:08:59;101020.63;;;4.17;76.92
57048;BME280;42934;54.294;18.598;2023-03-03T09:11:29;101019.75;;;4.15;76.74
57048;BME280;42934;54.294;18.598;2023-03-03T09:14:05;101021.50;;;4.14;76.69
57048;BME280;42934;54.294;18.598;2023-03-03T09:16:39;101005.03;;;4.17;76.52
57048;BME280;42934;54.294;18.598;2023-03-03T09:19:30;101011.97;;;4.19;76.11
57048;BME280;42934;54.294;18.598;2023-03-03T09:22:15;100997.25;;;4.24;76.34
57048;BME280;42934;54.294;18.598;2023-03-03T09:24:46;100998.97;;;4.31;76.35
57048;BME280;42934;54.294;18.598;2023-03-03T09:27:21;101004.16;;;4.36;75.91
57048;BME280;42934;54.294;18.598;2023-03-03T09:29:53;101000.72;;;4.28;75.50
57048;BME280;42934;54.294;18.598;2023-03-03T09:32:30;101016.31;;;4.28;75.42
57048;BME280;42934;54.294;18.598;2023-03-03T09:35:27;101008.50;;;4.28;75.42
57048;BME280;42934;54.294;18.598;2023-03-03T09:38:17;101008.50;;;4.32;75.27
57048;BME280;42934;54.294;18.598;2023-03-03T09:41:06;101007.66;;;4.27;75.57
57048;BME280;42934;54.294;18.598;2023-03-03T09:43:44;101018.03;;;4.32;75.30
57048;BME280;42934;54.294;18.598;2023-03-03T09:46:25;101017.13;;;4.44;75.38
57048;BME280;42934;54.294;18.598;2023-03-03T09:49:04;101004.13;;;4.58;75.32
57048;BME280;42934;54.294;18.598;2023-03-03T09:54:52;100995.38;;;4.78;74.43
57048;BME280;42934;54.294;18.598;2023-03-03T09:57:28;100996.22;;;4.90;74.63
57048;BME280;42934;54.294;18.598;2023-03-03T10:00:16;100986.66;;;4.98;74.19
57048;BME280;42934;54.294;18.598;2023-03-03T10:02:59;100984.00;;;5.07;74.33
57048;BME280;42934;54.294;18.598;2023-03-03T10:05:43;100984.84;;;5.08;73.22
57048;BME280;42934;54.294;18.598;2023-03-03T10:08:36;100982.28;;;5.06;73.75
57048;BME280;42934;54.294;18.598;2023-03-03T10:11:24;100982.25;;;5.11;73.65
57048;BME280;42934;54.294;18.598;2023-03-03T10:14:08;100977.00;;;5.18;72.79
57048;BME280;42934;54.294;18.598;2023-03-03T10:17:04;100977.84;;;5.23;72.73
57048;BME280;42934;54.294;18.598;2023-03-03T10:19:39;100972.63;;;5.22;72.32
57048;BME280;42934;54.294;18.598;2023-03-03T10:22:23;100960.44;;;5.32;71.91
57048;BME280;42934;54.294;18.598;2023-03-03T10:25:07;100972.59;;;5.31;71.92
57048;BME280;42934;54.294;18.598;2023-03-03T10:28:04;100978.63;;;5.39;71.20
57048;BME280;42934;54.294;18.598;2023-03-03T10:30:43;100979.47;;;5.43;70.91
57048;BME280;42934;54.294;18.598;2023-03-03T10:33:39;100986.41;;;5.41;69.88
57048;BME280;42934;54.294;18.598;2023-03-03T10:36:37;100972.41;;;5.62;71.01
57048;BME280;42934;54.294;18.598;2023-03-03T10:39:32;100975.78;;;5.73;70.27
57048;BME280;42934;54.294;18.598;2023-03-03T10:45:31;100972.16;;;5.96;69.57
57048;BME280;42934;54.294;18.598;2023-03-03T10:48:12;100974.72;;;6.03;69.23
57048;BME280;42934;54.294;18.598;2023-03-03T10:50:52;100979.00;;;6.06;67.95
57048;BME280;42934;54.294;18.598;2023-03-03T10:53:31;100979.75;;;6.20;68.14
57048;BME280;42934;54.294;18.598;2023-03-03T10:56:20;100972.75;;;6.25;67.90
57048;BME280;42934;54.294;18.598;2023-03-03T10:59:02;100965.66;;;6.40;68.06
57048;BME280;42934;54.294;18.598;2023-03-03T11:01:45;100968.09;;;6.55;67.62
57048;BME280;42934;54.294;18.598;2023-03-03T11:04:34;100968.03;;;6.61;66.35
57048;BME280;42934;54.294;18.598;2023-03-03T11:07:14;100972.25;;;6.73;65.06
57048;BME280;42934;54.294;18.598;2023-03-03T11:09:59;100978.19;;;6.84;65.55
57048;BME280;42934;54.294;18.598;2023-03-03T11:12:43;100964.91;;;7.04;64.87
57048;BME280;42934;54.294;18.598;2023-03-03T11:15:26;100969.91;;;7.21;64.49
57048;BME280;42934;54.294;18.598;2023-03-03T11:18:13;100958.38;;;7.36;63.79
57048;BME280;42934;54.294;18.598;2023-03-03T11:34:03;100936.84;;;9.88;56.12
57048;BME280;42934;54.294;18.598;2023-03-03T11:36:38;100936.28;;;9.75;57.04
57048;BME280;42934;54.294;18.598;2023-03-03T11:39:13;100939.78;;;9.39;56.28
57048;BME280;42934;54.294;18.598;2023-03-03T11:41:58;100935.41;;;9.38;56.03
57048;BME280;42934;54.294;18.598;2023-03-03T11:44:31;100930.56;;;9.58;56.34
57048;BME280;42934;54.294;18.598;2023-03-03T11:47:09;100925.03;;;9.70;56.08
57048;BME280;42934;54.294;18.598;2023-03-03T11:49:47;100912.09;;;9.97;54.65
57048;BME280;42934;54.294;18.598;2023-03-03T11:52:26;100914.28;;;10.15;55.54
57048;BME280;42934;54.294;18.598;2023-03-03T11:55:01;100903.72;;;10.17;54.92
57048;BME280;42934;54.294;18.598;2023-03-03T11:57:37;100898.13;;;10.31;55.06
57048;BME280;42934;54.294;18.598;2023-03-03T12:00:24;100892.84;;;10.63;54.42
57048;BME280;42934;54.294;18.598;2023-03-03T12:03:23;100888.16;;;10.73;54.15
57048;BME280;42934;54.294;18.598;2023-03-03T12:06:08;100885.34;;;10.79;53.61
57048;BME280;42934;54.294;18.598;2023-03-03T12:09:02;100869.91;;;10.98;53.78
57048;BME280;42934;54.294;18.598;2023-03-03T12:11:42;100879.59;;;10.96;52.59
57048;BME280;42934;54.294;18.598;2023-03-03T12:14:27;100873.03;;;10.81;52.66
57048;BME280;42934;54.294;18.598;2023-03-03T12:17:03;100881.16;;;10.74;51.50
57048;BME280;42934;54.294;18.598;2023-03-03T12:19:43;100871.09;;;10.88;52.27
57048;BME280;42934;54.294;18.598;2023-03-03T12:22:29;100869.91;;;10.98;51.26
57048;BME280;42934;54.294;18.598;2023-03-03T12:25:16;100871.84;;;11.20;51.14
57048;BME280;42934;54.294;18.598;2023-03-03T12:27:52;100860.91;;;11.33;50.87
57048;BME280;42934;54.294;18.598;2023-03-03T12:30:36;100858.81;;;11.45;50.07
57048;BME280;42934;54.294;18.598;2023-03-03T12:33:20;100838.34;;;11.79;50.09
57048;BME280;42934;54.294;18.598;2023-03-03T12:35:59;100841.47;;;12.16;49.83
57048;BME280;42934;54.294;18.598;2023-03-03T12:38:39;100836.28;;;11.89;48.45
57048;BME280;42934;54.294;18.598;2023-03-03T12:41:20;100834.50;;;11.90;48.27
57048;BME280;42934;54.294;18.598;2023-03-03T12:44:00;100841.66;;;11.85;48.84
57048;BME280;42934;54.294;18.598;2023-03-03T12:46:44;100833.41;;;11.95;49.19
57048;BME280;42934;54.294;18.598;2023-03-03T12:49:14;100828.28;;;11.92;47.58
57048;BME280;42934;54.294;18.598;2023-03-03T12:51:54;100837.53;;;11.77;48.07
57048;BME280;42934;54.294;18.598;2023-03-03T12:54:49;100833.38;;;11.70;47.43
57048;BME280;42934;54.294;18.598;2023-03-03T12:57:29;100835.69;;;11.54;47.90
57048;BME280;42934;54.294;18.598;2023-03-03T13:00:22;100844.94;;;11.40;47.69
57048;BME280;42934;54.294;18.598;2023-03-03T13:03:00;100822.88;;;11.44;48.14
57048;BME280;42934;54.294;18.598;2023-03-03T13:05:39;100814.84;;;11.48;48.18
57048;BME280;42934;54.294;18.598;2023-03-03T13:08:29;100813.19;;;11.19;47.47
57048;BME280;42934;54.294;18.598;2023-03-03T13:14:00;100807.47;;;11.06;47.05
57048;BME280;42934;54.294;18.598;2023-03-03T13:16:34;100806.94;;;10.95;47.31
57048;BME280;42934;54.294;18.598;2023-03-03T13:19:12;100807.84;;;10.94;47.49
57048;BME280;42934;54.294;18.598;2023-03-03T13:21:47;100794.66;;;10.67;47.53
57048;BME280;42934;54.294;18.598;2023-03-03T13:24:24;100807.47;;;10.78;48.17
57048;BME280;42934;54.294;18.598;2023-03-03T13:26:59;100799.34;;;10.58;48.29
57048;BME280;42934;54.294;18.598;2023-03-03T13:29:36;100790.47;;;10.32;47.93
57048;BME280;42934;54.294;18.598;2023-03-03T13:32:11;100792.94;;;10.38;48.28
57048;BME280;42934;54.294;18.598;2023-03-03T13:34:47;100783.59;;;10.28;48.27
57048;BME280;42934;54.294;18.598;2023-03-03T13:37:21;100792.63;;;10.18;48.14
57048;BME280;42934;54.294;18.598;2023-03-03T13:39:56;100787.19;;;10.24;48.75
57048;BME280;42934;54.294;18.598;2023-03-03T13:42:35;100789.28;;;10.13;48.17
57048;BME280;42934;54.294;18.598;2023-03-03T13:45:16;100795.56;;;10.06;48.68
57048;BME280;42934;54.294;18.598;2023-03-03T13:47:49;100787.97;;;9.96;48.69
57048;BME280;42934;54.294;18.598;2023-03-03T13:50:26;100790.66;;;9.95;48.46